Time;durP1;ratioP1;P1;durP2;ratioP2;P2;SDS_P1;SDS_P2;PMS_P1;PMS_P2;Temp;Humidity;BMP_temperature;BMP_pressure;BME280_temperature;BME280_humidity;BME280_pressure;Samples;Min_cycle;Max_cycle;Signal;HPM_P1;HPM_P2
2022/01/16 00:01:06;;;;;;;19.38;14.60;;;;;;;;;;5055157;28;20115;-74
2022/01/16 00:06:17;;;;;;;21.63;15.40;;;;;;;;;;5042070;28;20032;-74
2022/01/16 00:08:44;;;;;;;18.52;14.38;;;;;;;;;;5034038;28;20036;-74
2022/01/16 00:11:11;;;;;;;19.80;13.65;;;;;;;;;;5035311;28;20481;-74
2022/01/16 00:13:37;;;;;;;16.00;13.70;;;;;;;;;;5034525;28;20473;-74
2022/01/16 00:16:04;;;;;;;16.40;13.52;;;;;;;;;;5052352;28;20086;-74
2022/01/16 00:18:41;;;;;;;18.33;14.15;;;;;;;;;;5053548;28;20028;-74
2022/01/16 00:21:07;;;;;;;16.63;13.93;;;;;;;;;;5054976;28;20451;-74
2022/01/16 00:23:33;;;;;;;16.75;13.75;;;;;;;;;;5054014;28;20067;-74
2022/01/16 00:25:59;;;;;;;16.63;12.95;;;;;;;;;;5054886;28;20392;-74
2022/01/16 00:28:26;;;;;;;19.75;13.80;;;;;;;;;;5054582;28;20044;-74
2022/01/16 00:30:52;;;;;;;18.30;13.52;;;;;;;;;;5054711;28;20020;-74
2022/01/16 00:33:19;;;;;;;18.45;13.73;;;;;;;;;;5054405;28;20090;-74
2022/01/16 00:35:45;;;;;;;18.17;13.98;;;;;;;;;;5054594;28;20029;-74
2022/01/16 00:38:11;;;;;;;16.30;13.05;;;;;;;;;;5054677;28;20104;-74
2022/01/16 00:40:38;;;;;;;18.33;13.18;;;;;;;;;;5052477;28;20031;-74
2022/01/16 00:43:04;;;;;;;15.98;13.18;;;;;;;;;;5034436;28;20073;-74
2022/01/16 00:45:34;;;;;;;18.77;13.77;;;;;;;;;;5034337;28;20037;-74
2022/01/16 00:48:03;;;;;;;15.27;12.70;;;;;;;;;;5034450;28;20452;-74
2022/01/16 00:50:29;;;;;;;16.67;13.00;;;;;;;;;;5034296;28;20103;-74
2022/01/16 00:52:55;;;;;;;16.75;13.32;;;;;;;;;;5033483;28;20121;-74
2022/01/16 00:55:22;;;;;;;16.52;13.13;;;;;;;;;;5033678;28;20034;-74
2022/01/16 00:57:48;;;;;;;16.13;12.77;;;;;;;;;;5033833;28;20041;-74
2022/01/16 01:00:14;;;;;;;17.85;13.20;;;;;;;;;;5034089;28;20072;-74
2022/01/16 01:02:40;;;;;;;15.00;12.45;;;;;;;;;;5033624;28;20401;-74
2022/01/16 01:05:08;;;;;;;15.50;12.63;;;;;;;;;;5036761;28;20029;-74
2022/01/16 01:07:34;;;;;;;15.63;12.13;;;;;;;;;;5052278;28;20025;-74
2022/01/16 01:10:01;;;;;;;16.23;12.07;;;;;;;;;;5053567;28;20032;-75
2022/01/16 01:12:41;;;;;;;15.93;12.10;;;;;;;;;;5052632;28;20071;-74
2022/01/16 01:15:09;;;;;;;15.38;12.50;;;;;;;;;;5044282;28;20021;-74
2022/01/16 01:17:43;;;;;;;14.38;11.88;;;;;;;;;;5033501;28;20052;-74
2022/01/16 01:20:11;;;;;;;15.10;11.52;;;;;;;;;;5032198;28;20037;-74
2022/01/16 01:22:37;;;;;;;15.25;11.55;;;;;;;;;;5033610;28;20527;-74
2022/01/16 01:25:03;;;;;;;14.25;11.23;;;;;;;;;;5033333;28;20025;-74
2022/01/16 01:27:31;;;;;;;14.13;11.80;;;;;;;;;;5033607;28;20026;-74
2022/01/16 01:30:07;;;;;;;15.30;11.52;;;;;;;;;;5033382;28;20032;-74
2022/01/16 01:32:36;;;;;;;15.35;11.18;;;;;;;;;;5032931;28;20021;-74
2022/01/16 01:35:02;;;;;;;15.27;11.27;;;;;;;;;;5033340;28;20065;-74
2022/01/16 01:37:28;;;;;;;13.65;10.90;;;;;;;;;;5033398;28;20445;-74
2022/01/16 01:39:54;;;;;;;14.25;10.95;;;;;;;;;;5033195;28;20025;-74
2022/01/16 01:42:20;;;;;;;14.27;11.00;;;;;;;;;;5046885;28;20021;-74
2022/01/16 01:53:00;;;;;;;12.20;10.30;;;;;;;;;;5053027;28;20078;-75
2022/01/16 01:55:27;;;;;;;13.20;10.55;;;;;;;;;;5053111;28;20045;-75
2022/01/16 01:57:53;;;;;;;13.85;10.35;;;;;;;;;;5051468;28;20053;-74
2022/01/16 02:00:20;;;;;;;11.85;10.05;;;;;;;;;;5052604;28;20086;-74
2022/01/16 02:05:19;;;;;;;12.90;9.95;;;;;;;;;;5047959;28;20034;-74
2022/01/16 02:07:45;;;;;;;13.85;10.15;;;;;;;;;;5032614;28;20072;-74
2022/01/16 02:10:11;;;;;;;14.73;10.80;;;;;;;;;;5035458;28;20028;-74
2022/01/16 02:12:42;;;;;;;12.55;10.05;;;;;;;;;;5043284;28;20085;-74
2022/01/16 02:15:33;;;;;;;13.60;9.63;;;;;;;;;;5038777;28;20049;-74
2022/01/16 02:31:45;;;;;;;11.68;9.32;;;;;;;;;;5032021;28;20034;-74
2022/01/16 02:36:59;;;;;;;12.85;9.65;;;;;;;;;;5032360;28;20090;-74
2022/01/16 02:39:29;;;;;;;11.90;9.13;;;;;;;;;;5032585;28;20036;-74
2022/01/16 02:41:58;;;;;;;12.57;9.27;;;;;;;;;;5042307;28;20025;-74
2022/01/16 02:46:55;;;;;;;12.80;9.80;;;;;;;;;;5032125;28;20428;-74
2022/01/16 02:49:21;;;;;;;12.40;9.68;;;;;;;;;;5032113;28;20023;-74
2022/01/16 02:51:47;;;;;;;11.25;9.02;;;;;;;;;;5030351;28;20168;-74
2022/01/16 02:54:14;;;;;;;11.95;9.07;;;;;;;;;;5032494;28;20440;-74
2022/01/16 02:56:40;;;;;;;12.35;8.80;;;;;;;;;;5030547;28;20033;-74
2022/01/16 02:59:07;;;;;;;11.05;9.00;;;;;;;;;;5030706;28;20029;-74
2022/01/16 03:01:34;;;;;;;11.82;9.13;;;;;;;;;;5031446;28;20041;-74
2022/01/16 03:04:00;;;;;;;10.45;8.60;;;;;;;;;;5031946;28;20032;-74
2022/01/16 03:06:27;;;;;;;10.90;8.73;;;;;;;;;;5045923;28;20025;-74
2022/01/16 03:08:53;;;;;;;10.38;7.78;;;;;;;;;;5050643;28;20023;-73
2022/01/16 03:13:48;;;;;;;11.30;8.20;;;;;;;;;;5051723;28;20449;-74
2022/01/16 03:16:15;;;;;;;11.25;8.50;;;;;;;;;;5052139;28;20544;-74
2022/01/16 03:24:11;;;;;;;11.82;8.73;;;;;;;;;;5031771;28;20049;-74
2022/01/16 03:26:37;;;;;;;11.13;9.02;;;;;;;;;;5031728;28;20032;-74
2022/01/16 03:29:03;;;;;;;12.15;8.80;;;;;;;;;;5032013;28;20386;-74
2022/01/16 03:31:29;;;;;;;10.38;8.50;;;;;;;;;;5031169;28;20057;-74
2022/01/16 03:33:56;;;;;;;13.02;9.00;;;;;;;;;;5032050;28;20104;-74
2022/01/16 03:36:23;;;;;;;10.68;8.15;;;;;;;;;;5033797;28;20033;-74
2022/01/16 03:38:49;;;;;;;12.00;9.02;;;;;;;;;;5035672;28;20421;-74
2022/01/16 03:41:15;;;;;;;13.25;8.45;;;;;;;;;;5040331;28;20079;-74
2022/01/16 03:43:41;;;;;;;12.13;9.30;;;;;;;;;;5054937;28;20067;-74
2022/01/16 03:46:10;;;;;;;12.23;9.35;;;;;;;;;;5054197;28;20060;-74
2022/01/16 03:48:36;;;;;;;12.05;9.35;;;;;;;;;;5054947;28;20108;-74
2022/01/16 03:51:02;;;;;;;13.20;9.73;;;;;;;;;;5054971;28;20029;-74
2022/01/16 03:53:29;;;;;;;11.32;8.98;;;;;;;;;;5054407;28;20463;-74
2022/01/16 03:55:55;;;;;;;12.18;9.02;;;;;;;;;;5053993;28;20028;-74
2022/01/16 03:58:21;;;;;;;12.55;9.38;;;;;;;;;;5055096;28;20076;-74
2022/01/16 04:00:47;;;;;;;14.05;9.20;;;;;;;;;;5054731;28;20025;-74
2022/01/16 04:03:13;;;;;;;11.38;8.93;;;;;;;;;;5054294;28;20115;-74
2022/01/16 04:05:39;;;;;;;12.57;9.07;;;;;;;;;;5047223;28;20033;-74
2022/01/16 04:08:05;;;;;;;11.48;8.93;;;;;;;;;;5034673;28;20022;-74
2022/01/16 04:10:31;;;;;;;11.15;8.88;;;;;;;;;;5034762;28;20100;-74
2022/01/16 04:12:58;;;;;;;12.00;8.95;;;;;;;;;;5034867;28;20029;-74
2022/01/16 04:15:33;;;;;;;12.13;8.40;;;;;;;;;;5033478;28;20030;-75
2022/01/16 04:18:00;;;;;;;12.15;8.95;;;;;;;;;;5038659;28;20029;-74
2022/01/16 04:20:26;;;;;;;13.23;9.38;;;;;;;;;;5053269;28;20029;-74
2022/01/16 04:22:52;;;;;;;11.35;8.55;;;;;;;;;;5054354;28;20031;-74
2022/01/16 04:25:19;;;;;;;10.57;8.50;;;;;;;;;;5053061;28;20029;-74
2022/01/16 04:27:45;;;;;;;11.18;8.40;;;;;;;;;;5054488;28;20021;-74
2022/01/16 04:30:11;;;;;;;12.35;9.32;;;;;;;;;;5054303;28;20032;-74
2022/01/16 04:32:38;;;;;;;11.48;9.07;;;;;;;;;;5054193;28;20078;-74
2022/01/16 04:35:04;;;;;;;10.77;8.65;;;;;;;;;;5054348;28;20447;-74
2022/01/16 04:37:30;;;;;;;10.27;8.38;;;;;;;;;;5054134;28;20033;-74
2022/01/16 04:40:00;;;;;;;11.23;8.52;;;;;;;;;;5054379;28;20031;-74
2022/01/16 04:45:11;;;;;;;11.95;8.70;;;;;;;;;;5033935;28;20036;-74
2022/01/16 04:47:37;;;;;;;12.38;8.45;;;;;;;;;;5033336;28;20400;-74
2022/01/16 04:50:04;;;;;;;11.43;8.50;;;;;;;;;;5033878;28;20021;-74
2022/01/16 04:52:30;;;;;;;10.27;7.90;;;;;;;;;;5034488;28;20473;-74
2022/01/16 04:54:56;;;;;;;11.40;8.50;;;;;;;;;;5032655;28;20087;-74
2022/01/16 04:57:22;;;;;;;9.80;7.63;;;;;;;;;;5033861;28;20057;-74
2022/01/16 04:59:48;;;;;;;11.73;7.97;;;;;;;;;;5034013;28;20076;-74
2022/01/16 05:02:14;;;;;;;9.18;7.28;;;;;;;;;;5033127;28;20041;-74
2022/01/16 05:04:40;;;;;;;12.38;8.77;;;;;;;;;;5033854;28;20489;-74
2022/01/16 05:07:07;;;;;;;10.30;8.40;;;;;;;;;;5053307;28;20025;-74
2022/01/16 05:09:33;;;;;;;10.68;7.82;;;;;;;;;;5053771;28;20017;-74
2022/01/16 05:12:02;;;;;;;10.05;7.85;;;;;;;;;;5053277;28;20032;-74
2022/01/16 05:17:12;;;;;;;9.93;7.50;;;;;;;;;;5053491;28;20039;-74
2022/01/16 05:19:39;;;;;;;9.65;7.82;;;;;;;;;;5035710;28;20036;-74
2022/01/16 05:22:06;;;;;;;10.35;8.18;;;;;;;;;;5033117;28;20033;-74
2022/01/16 05:24:34;;;;;;;10.50;8.15;;;;;;;;;;5033235;28;20405;-74
2022/01/16 05:27:00;;;;;;;10.15;7.93;;;;;;;;;;5033180;28;20373;-74
2022/01/16 05:29:26;;;;;;;9.93;8.20;;;;;;;;;;5033148;28;20022;-74
2022/01/16 05:31:53;;;;;;;10.57;8.25;;;;;;;;;;5032958;28;20079;-74
2022/01/16 05:34:19;;;;;;;10.77;7.85;;;;;;;;;;5033012;28;20083;-74
2022/01/16 05:36:45;;;;;;;10.77;7.55;;;;;;;;;;5033493;28;20104;-74
2022/01/16 05:39:12;;;;;;;11.43;8.02;;;;;;;;;;5031692;28;20049;-74
2022/01/16 05:41:38;;;;;;;10.05;7.60;;;;;;;;;;5040811;28;20041;-74
2022/01/16 05:44:04;;;;;;;11.27;8.32;;;;;;;;;;5052838;28;20450;-74
2022/01/16 05:46:31;;;;;;;8.90;7.28;;;;;;;;;;5052942;28;20032;-74
2022/01/16 05:48:57;;;;;;;9.23;7.18;;;;;;;;;;5052723;28;20028;-74
2022/01/16 05:51:23;;;;;;;10.40;8.20;;;;;;;;;;5052175;28;20476;-74
2022/01/16 05:53:51;;;;;;;9.32;7.35;;;;;;;;;;5051484;28;20052;-74
2022/01/16 05:56:17;;;;;;;8.52;7.05;;;;;;;;;;5052668;28;20409;-74
2022/01/16 05:58:43;;;;;;;10.70;7.25;;;;;;;;;;5052283;28;20504;-74
2022/01/16 06:01:10;;;;;;;9.40;7.28;;;;;;;;;;5052567;28;20040;-74
2022/01/16 06:03:36;;;;;;;9.27;7.22;;;;;;;;;;5051888;28;20044;-74
2022/01/16 06:06:02;;;;;;;10.57;7.45;;;;;;;;;;5041744;28;20024;-74
2022/01/16 06:08:28;;;;;;;7.75;6.72;;;;;;;;;;5032469;28;20045;-74
2022/01/16 06:10:54;;;;;;;8.85;6.65;;;;;;;;;;5031257;28;20021;-74
2022/01/16 06:13:20;;;;;;;9.82;7.70;;;;;;;;;;5032116;28;20021;-74
2022/01/16 06:15:46;;;;;;;8.48;6.60;;;;;;;;;;5032579;28;20026;-74
2022/01/16 06:18:13;;;;;;;9.80;7.72;;;;;;;;;;5038267;28;20543;-74
2022/01/16 06:20:41;;;;;;;8.65;6.78;;;;;;;;;;5052441;28;20017;-74
2022/01/16 06:23:07;;;;;;;8.55;6.70;;;;;;;;;;5051095;28;20408;-74
2022/01/16 06:25:33;;;;;;;8.20;7.03;;;;;;;;;;5052108;28;20040;-74
2022/01/16 06:27:59;;;;;;;9.13;6.55;;;;;;;;;;5052691;28;20385;-74
2022/01/16 06:30:25;;;;;;;9.40;7.00;;;;;;;;;;5052040;28;20048;-74
2022/01/16 06:32:51;;;;;;;7.85;6.15;;;;;;;;;;5051037;28;20488;-74
2022/01/16 06:35:17;;;;;;;8.32;6.13;;;;;;;;;;5052063;28;20029;-74
2022/01/16 06:37:44;;;;;;;9.25;6.63;;;;;;;;;;5052556;28;20400;-74
2022/01/16 06:40:12;;;;;;;9.48;6.47;;;;;;;;;;5051864;28;20492;-74
2022/01/16 06:42:38;;;;;;;10.18;7.03;;;;;;;;;;5034210;28;20095;-74
2022/01/16 06:45:08;;;;;;;8.75;6.65;;;;;;;;;;5031986;28;20022;-74
2022/01/16 06:47:35;;;;;;;8.00;6.28;;;;;;;;;;5032503;28;20036;-73
2022/01/16 06:50:01;;;;;;;8.10;6.20;;;;;;;;;;5031815;28;20021;-74
2022/01/16 06:52:27;;;;;;;8.93;6.88;;;;;;;;;;5032049;28;20083;-74
2022/01/16 06:54:53;;;;;;;8.52;6.70;;;;;;;;;;5031795;28;20028;-74
2022/01/16 06:57:19;;;;;;;8.18;6.20;;;;;;;;;;5030824;28;20578;-74
2022/01/16 06:59:47;;;;;;;8.55;6.47;;;;;;;;;;5031991;28;20029;-74
2022/01/16 07:02:16;;;;;;;8.05;6.20;;;;;;;;;;5031531;28;20033;-74
2022/01/16 07:04:42;;;;;;;8.75;6.75;;;;;;;;;;5030533;28;20116;-75
2022/01/16 07:07:09;;;;;;;8.10;6.10;;;;;;;;;;5050563;28;20468;-74
2022/01/16 07:09:35;;;;;;;7.93;6.15;;;;;;;;;;5051856;28;20021;-74
2022/01/16 07:12:01;;;;;;;7.75;6.03;;;;;;;;;;5054442;28;20100;-74
2022/01/16 07:14:27;;;;;;;8.38;6.70;;;;;;;;;;5055775;28;20029;-74
2022/01/16 07:16:53;;;;;;;8.60;5.95;;;;;;;;;;5055760;28;20048;-74
2022/01/16 07:19:19;;;;;;;7.18;6.00;;;;;;;;;;5039043;28;20234;-74
2022/01/16 07:21:45;;;;;;;7.82;6.07;;;;;;;;;;5035222;28;20032;-75
2022/01/16 07:24:16;;;;;;;6.60;5.47;;;;;;;;;;5035591;28;20033;-75
2022/01/16 07:26:45;;;;;;;7.50;5.88;;;;;;;;;;5035787;28;20037;-74
2022/01/16 07:29:11;;;;;;;7.90;5.85;;;;;;;;;;5035701;28;20501;-75
2022/01/16 07:31:40;;;;;;;6.90;5.88;;;;;;;;;;5035014;28;20025;-74
2022/01/16 07:34:07;;;;;;;7.28;5.57;;;;;;;;;;5035530;28;20025;-75
2022/01/16 07:36:33;;;;;;;7.03;5.90;;;;;;;;;;5035797;28;20496;-75
2022/01/16 07:38:59;;;;;;;7.50;5.45;;;;;;;;;;5035145;28;20053;-75
2022/01/16 07:41:26;;;;;;;7.03;5.68;;;;;;;;;;5041389;28;20032;-74
2022/01/16 07:43:52;;;;;;;7.18;5.80;;;;;;;;;;5053769;28;20029;-75
2022/01/16 07:46:18;;;;;;;8.23;6.05;;;;;;;;;;5055206;28;20021;-74
2022/01/16 07:48:44;;;;;;;7.50;5.70;;;;;;;;;;5055338;28;20025;-75
2022/01/16 07:51:10;;;;;;;7.25;5.93;;;;;;;;;;5054882;28;20021;-75
2022/01/16 07:53:37;;;;;;;8.00;6.70;;;;;;;;;;5053482;28;20079;-74
2022/01/16 07:56:03;;;;;;;7.05;6.10;;;;;;;;;;5054830;28;20025;-75
2022/01/16 07:58:30;;;;;;;7.97;6.47;;;;;;;;;;5054919;28;20053;-75
2022/01/16 08:00:58;;;;;;;10.50;6.53;;;;;;;;;;5054657;28;20031;-74
2022/01/16 08:03:25;;;;;;;7.57;6.10;;;;;;;;;;5054386;28;20113;-74
2022/01/16 08:05:51;;;;;;;7.43;5.90;;;;;;;;;;5045270;28;20017;-74
2022/01/16 08:08:17;;;;;;;7.00;6.10;;;;;;;;;;5034835;28;20140;-74
2022/01/16 08:10:43;;;;;;;7.53;6.03;;;;;;;;;;5034685;28;20018;-74
2022/01/16 08:13:09;;;;;;;8.48;6.22;;;;;;;;;;5034777;28;20033;-75
2022/01/16 08:15:35;;;;;;;7.90;6.05;;;;;;;;;;5034708;28;20029;-74
2022/01/16 08:18:01;;;;;;;7.57;6.40;;;;;;;;;;5039062;28;20070;-75
2022/01/16 08:20:27;;;;;;;7.38;5.90;;;;;;;;;;5054546;28;20176;-74
2022/01/16 08:22:54;;;;;;;7.53;6.15;;;;;;;;;;5053273;28;20049;-74
2022/01/16 08:25:21;;;;;;;8.13;6.30;;;;;;;;;;5054175;28;20021;-75
2022/01/16 08:27:47;;;;;;;7.25;6.18;;;;;;;;;;5054462;28;20025;-75
2022/01/16 08:30:13;;;;;;;9.10;6.78;;;;;;;;;;5054284;28;20017;-74
2022/01/16 08:32:39;;;;;;;9.57;7.45;;;;;;;;;;5054234;28;20033;-74
2022/01/16 08:35:06;;;;;;;8.57;7.25;;;;;;;;;;5052943;28;20032;-75
2022/01/16 08:37:33;;;;;;;9.93;7.32;;;;;;;;;;5054195;28;20083;-75
2022/01/16 08:39:59;;;;;;;8.93;7.72;;;;;;;;;;5054195;28;20452;-75
2022/01/16 08:42:25;;;;;;;9.50;7.50;;;;;;;;;;5038621;28;20036;-75
2022/01/16 08:44:51;;;;;;;10.70;7.90;;;;;;;;;;5034264;28;20083;-75
2022/01/16 08:47:17;;;;;;;10.00;7.63;;;;;;;;;;5034283;28;20049;-74
2022/01/16 08:49:43;;;;;;;9.77;7.88;;;;;;;;;;5034211;28;20108;-74
2022/01/16 08:52:09;;;;;;;8.30;6.97;;;;;;;;;;5033220;28;20115;-74
2022/01/16 08:54:35;;;;;;;8.70;7.22;;;;;;;;;;5034093;28;20032;-75
2022/01/16 08:57:02;;;;;;;9.38;7.88;;;;;;;;;;5033526;28;20041;-75
2022/01/16 08:59:28;;;;;;;10.13;7.22;;;;;;;;;;5034168;28;20021;-74
2022/01/16 09:01:54;;;;;;;10.98;7.15;;;;;;;;;;5033068;28;20480;-74
2022/01/16 09:04:20;;;;;;;9.95;7.25;;;;;;;;;;5032737;28;20657;-74
2022/01/16 09:06:46;;;;;;;9.07;7.00;;;;;;;;;;5050357;28;20515;-74
2022/01/16 09:09:13;;;;;;;9.23;7.45;;;;;;;;;;5053672;28;20071;-74
2022/01/16 09:11:39;;;;;;;8.95;6.88;;;;;;;;;;5052955;28;20082;-75
2022/01/16 09:14:05;;;;;;;7.75;6.05;;;;;;;;;;5053761;28;20096;-75
2022/01/16 09:16:31;;;;;;;7.65;6.70;;;;;;;;;;5053255;28;20036;-75
2022/01/16 09:18:57;;;;;;;8.48;6.70;;;;;;;;;;5039979;28;20049;-74
2022/01/16 09:21:24;;;;;;;9.65;6.97;;;;;;;;;;5032813;28;20037;-74
2022/01/16 09:23:50;;;;;;;8.38;6.72;;;;;;;;;;5033412;28;20029;-74
2022/01/16 09:26:17;;;;;;;9.90;6.45;;;;;;;;;;5033316;28;20029;-74
2022/01/16 09:28:44;;;;;;;7.93;6.53;;;;;;;;;;5033233;28;20021;-74
2022/01/16 09:31:10;;;;;;;8.07;6.63;;;;;;;;;;5033284;28;20064;-74
2022/01/16 09:33:37;;;;;;;7.50;6.32;;;;;;;;;;5032366;28;20025;-74
2022/01/16 09:36:03;;;;;;;6.97;6.25;;;;;;;;;;5033164;28;20736;-74
2022/01/16 09:38:30;;;;;;;8.00;6.15;;;;;;;;;;5031945;28;20029;-75
2022/01/16 09:40:56;;;;;;;8.38;6.38;;;;;;;;;;5035816;28;20203;-75
2022/01/16 09:43:23;;;;;;;7.95;6.38;;;;;;;;;;5052893;28;20017;-74
2022/01/16 09:45:51;;;;;;;8.48;6.05;;;;;;;;;;5052962;28;20032;-74
2022/01/16 09:48:18;;;;;;;9.82;6.53;;;;;;;;;;5053078;28;20025;-74
2022/01/16 09:50:44;;;;;;;7.53;6.03;;;;;;;;;;5053180;28;20021;-74
2022/01/16 09:53:12;;;;;;;7.68;6.10;;;;;;;;;;5052589;28;20021;-75
2022/01/16 09:55:38;;;;;;;7.95;6.57;;;;;;;;;;5052793;28;20025;-75
2022/01/16 09:58:04;;;;;;;9.38;7.10;;;;;;;;;;5052204;28;20076;-75
2022/01/16 10:00:30;;;;;;;7.95;6.05;;;;;;;;;;5052891;28;20043;-74
2022/01/16 10:02:57;;;;;;;7.20;6.00;;;;;;;;;;5052372;28;20017;-75
2022/01/16 10:05:28;;;;;;;9.55;6.15;;;;;;;;;;5047497;28;20029;-75
2022/01/16 10:07:55;;;;;;;9.38;6.15;;;;;;;;;;5032795;28;20038;-75
2022/01/16 10:10:25;;;;;;;7.70;6.18;;;;;;;;;;5032553;28;20036;-74
2022/01/16 10:12:54;;;;;;;8.63;6.07;;;;;;;;;;5032297;28;20025;-74
2022/01/16 10:15:21;;;;;;;7.57;5.80;;;;;;;;;;5032501;28;20025;-74
2022/01/16 10:17:48;;;;;;;7.05;5.25;;;;;;;;;;5034872;28;20026;-74
2022/01/16 10:20:18;;;;;;;7.88;6.07;;;;;;;;;;5052287;28;20043;-75
2022/01/16 10:22:48;;;;;;;7.53;5.85;;;;;;;;;;5052340;28;20029;-75
2022/01/16 10:25:15;;;;;;;8.13;6.13;;;;;;;;;;5052096;28;20396;-74
2022/01/16 10:27:43;;;;;;;7.55;5.70;;;;;;;;;;5052100;28;20025;-74
2022/01/16 10:30:12;;;;;;;6.45;4.93;;;;;;;;;;5052162;28;20067;-74
2022/01/16 10:32:40;;;;;;;7.38;5.53;;;;;;;;;;5050865;28;20032;-75
2022/01/16 10:35:22;;;;;;;6.28;5.43;;;;;;;;;;5052123;28;20047;-74
2022/01/16 10:37:52;;;;;;;6.60;5.30;;;;;;;;;;5052149;28;20496;-75
2022/01/16 10:40:19;;;;;;;6.30;4.88;;;;;;;;;;5050809;28;20136;-75
2022/01/16 10:42:49;;;;;;;5.55;4.80;;;;;;;;;;5034311;28;20029;-74
2022/01/16 10:45:16;;;;;;;7.28;4.88;;;;;;;;;;5032160;28;20095;-75
2022/01/16 10:47:43;;;;;;;6.18;4.72;;;;;;;;;;5035139;28;20018;-75
2022/01/16 10:50:09;;;;;;;6.43;5.00;;;;;;;;;;5036523;28;20415;-75
2022/01/16 10:52:51;;;;;;;5.65;4.65;;;;;;;;;;5036298;28;20017;-74
2022/01/16 10:55:18;;;;;;;7.20;4.95;;;;;;;;;;5034873;28;20492;-75
2022/01/16 10:57:45;;;;;;;5.95;4.82;;;;;;;;;;5036096;28;20057;-75
2022/01/16 11:00:14;;;;;;;6.03;5.03;;;;;;;;;;5036404;28;20492;-75
2022/01/16 11:02:42;;;;;;;7.30;5.40;;;;;;;;;;5036003;28;20021;-75
2022/01/16 11:05:10;;;;;;;6.53;4.90;;;;;;;;;;5037971;28;20025;-74
2022/01/16 11:07:37;;;;;;;6.10;5.22;;;;;;;;;;5055943;28;20047;-75
2022/01/16 11:10:21;;;;;;;4.82;4.28;;;;;;;;;;5056175;28;20104;-74
2022/01/16 11:12:48;;;;;;;7.25;5.70;;;;;;;;;;5055907;28;20021;-75
2022/01/16 11:15:14;;;;;;;6.18;4.75;;;;;;;;;;5055677;28;20029;-75
2022/01/16 11:17:40;;;;;;;6.53;4.30;;;;;;;;;;5054333;28;20032;-75
2022/01/16 11:20:08;;;;;;;7.00;4.80;;;;;;;;;;5035646;28;20087;-75
2022/01/16 11:22:55;;;;;;;6.15;4.53;;;;;;;;;;5036065;28;20416;-75
2022/01/16 11:25:30;;;;;;;5.35;4.25;;;;;;;;;;5035385;28;20040;-75
2022/01/16 11:27:57;;;;;;;6.22;4.78;;;;;;;;;;5035510;28;20070;-75
2022/01/16 11:30:24;;;;;;;5.78;4.40;;;;;;;;;;5035889;28;20167;-74
2022/01/16 11:32:51;;;;;;;6.05;4.53;;;;;;;;;;5034103;28;20128;-75
2022/01/16 11:35:18;;;;;;;5.60;4.50;;;;;;;;;;5035811;28;20505;-75
2022/01/16 11:37:44;;;;;;;5.68;4.28;;;;;;;;;;5035798;28;20018;-75
2022/01/16 11:40:21;;;;;;;4.90;4.20;;;;;;;;;;5035412;28;20506;-75
2022/01/16 11:43:06;;;;;;;6.28;4.32;;;;;;;;;;5051832;28;20025;-75
2022/01/16 11:45:32;;;;;;;6.25;4.20;;;;;;;;;;5055357;28;20033;-75
2022/01/16 11:47:58;;;;;;;5.03;3.90;;;;;;;;;;5055322;28;20059;-74
2022/01/16 11:50:34;;;;;;;4.95;4.10;;;;;;;;;;5055264;28;20445;-75
2022/01/16 11:53:00;;;;;;;4.80;3.88;;;;;;;;;;5055093;28;20565;-74
2022/01/16 11:55:33;;;;;;;5.07;3.63;;;;;;;;;;5055194;28;20036;-74
2022/01/16 11:58:00;;;;;;;;;;;;;;;;;;5055064;28;20060;-75
2022/01/16 12:00:41;;;;;;;7.05;4.00;;;;;;;;;;5055196;28;20403;-75
2022/01/16 12:03:27;;;;;;;4.45;3.92;;;;;;;;;;5054727;28;20408;-75
2022/01/16 12:05:56;;;;;;;4.63;3.83;;;;;;;;;;5044009;28;20501;-74
2022/01/16 12:08:34;;;;;;;5.05;4.00;;;;;;;;;;5034969;28;20400;-74
2022/01/16 12:11:00;;;;;;;4.57;3.38;;;;;;;;;;5034823;28;20033;-75
2022/01/16 12:13:45;;;;;;;5.03;3.67;;;;;;;;;;5034273;28;20032;-75
2022/01/16 12:16:34;;;;;;;4.70;3.97;;;;;;;;;;5034899;28;20052;-74
2022/01/16 12:19:19;;;;;;;5.25;3.97;;;;;;;;;;5046479;28;20507;-75
2022/01/16 12:21:54;;;;;;;5.65;3.72;;;;;;;;;;5054076;28;20025;-74
2022/01/16 12:24:40;;;;;;;6.18;3.83;;;;;;;;;;5053006;28;20550;-75
2022/01/16 12:27:26;;;;;;;5.43;4.20;;;;;;;;;;5054466;28;20059;-75
2022/01/16 12:30:11;;;;;;;4.80;3.92;;;;;;;;;;5053040;28;20028;-74
2022/01/16 12:32:53;;;;;;;4.85;3.85;;;;;;;;;;5054093;28;20033;-74
2022/01/16 12:35:38;;;;;;;5.03;4.18;;;;;;;;;;5052978;28;20025;-74
2022/01/16 12:38:11;;;;;;;3.85;3.40;;;;;;;;;;5054367;28;20557;-75
2022/01/16 12:40:38;;;;;;;5.82;4.00;;;;;;;;;;5052761;28;20032;-75
2022/01/16 12:43:08;;;;;;;4.50;3.58;;;;;;;;;;5034445;28;20033;-75
2022/01/16 12:45:38;;;;;;;4.35;3.50;;;;;;;;;;5034775;28;20068;-74
2022/01/16 12:48:04;;;;;;;4.50;3.40;;;;;;;;;;5033110;28;20064;-74
2022/01/16 12:50:30;;;;;;;5.03;3.65;;;;;;;;;;5033994;28;20028;-74
2022/01/16 12:52:56;;;;;;;4.57;3.47;;;;;;;;;;5034194;28;20508;-74
2022/01/16 12:55:27;;;;;;;5.25;3.58;;;;;;;;;;5033749;28;20160;-74
2022/01/16 12:57:53;;;;;;;3.72;3.30;;;;;;;;;;5033836;28;20049;-74
2022/01/16 13:00:19;;;;;;;4.15;3.60;;;;;;;;;;5033785;28;20078;-75
2022/01/16 13:02:45;;;;;;;4.20;3.20;;;;;;;;;;5033821;28;20029;-75
2022/01/16 13:05:20;;;;;;;3.90;3.20;;;;;;;;;;5037194;28;20431;-75
2022/01/16 13:07:46;;;;;;;4.00;3.53;;;;;;;;;;5053530;28;20079;-74
2022/01/16 13:10:12;;;;;;;5.05;4.00;;;;;;;;;;5053209;28;20484;-75
2022/01/16 13:12:38;;;;;;;5.63;3.60;;;;;;;;;;5053569;28;20021;-74
2022/01/16 13:15:04;;;;;;;5.10;3.85;;;;;;;;;;5053354;28;20021;-75
2022/01/16 13:17:34;;;;;;;4.03;3.25;;;;;;;;;;5053462;28;20036;-74
2022/01/16 13:20:02;;;;;;;4.22;3.47;;;;;;;;;;5033559;28;20029;-74
2022/01/16 13:22:30;;;;;;;3.55;3.00;;;;;;;;;;5033109;28;20079;-74
2022/01/16 13:24:58;;;;;;;4.25;3.35;;;;;;;;;;5033389;28;20570;-74
2022/01/16 13:27:25;;;;;;;3.83;3.22;;;;;;;;;;5033544;28;20599;-75
2022/01/16 13:29:51;;;;;;;4.68;3.55;;;;;;;;;;5033427;28;20049;-74
2022/01/16 13:32:18;;;;;;;4.60;3.35;;;;;;;;;;5032682;28;20026;-75
2022/01/16 13:34:44;;;;;;;3.28;2.97;;;;;;;;;;5033222;28;20428;-75
2022/01/16 13:37:15;;;;;;;3.42;2.85;;;;;;;;;;5033402;28;20041;-73
2022/01/16 13:39:46;;;;;;;4.53;2.95;;;;;;;;;;5033294;28;20026;-73
2022/01/16 13:42:13;;;;;;;3.88;3.25;;;;;;;;;;5045691;28;20032;-73
2022/01/16 13:44:39;;;;;;;4.38;3.00;;;;;;;;;;5051499;28;20029;-73
2022/01/16 13:47:05;;;;;;;3.72;2.83;;;;;;;;;;5053272;28;20032;-73
2022/01/16 13:49:31;;;;;;;3.67;3.28;;;;;;;;;;5053228;28;20958;-73
2022/01/16 13:52:01;;;;;;;4.10;2.75;;;;;;;;;;5052667;28;20040;-73
2022/01/16 13:54:31;;;;;;;3.70;3.05;;;;;;;;;;5051739;28;20086;-73
2022/01/16 13:57:00;;;;;;;3.38;2.80;;;;;;;;;;5052494;28;20073;-73
2022/01/16 13:59:27;;;;;;;3.25;2.72;;;;;;;;;;5051894;28;20035;-73
2022/01/16 14:01:54;;;;;;;3.20;2.80;;;;;;;;;;5051926;28;20044;-73
2022/01/16 14:04:21;;;;;;;3.85;2.63;;;;;;;;;;5052788;28;20029;-73
2022/01/16 14:06:51;;;;;;;3.33;2.60;;;;;;;;;;5035687;28;20108;-74
2022/01/16 14:09:18;;;;;;;3.20;2.60;;;;;;;;;;5032778;28;20485;-73
2022/01/16 14:11:45;;;;;;;3.13;2.60;;;;;;;;;;5032093;28;20067;-73
2022/01/16 14:14:12;;;;;;;3.08;2.60;;;;;;;;;;5032708;28;20025;-73
2022/01/16 14:16:47;;;;;;;3.00;2.50;;;;;;;;;;5032619;28;20511;-73
2022/01/16 14:19:19;;;;;;;3.25;2.65;;;;;;;;;;5046829;28;20511;-73
2022/01/16 14:21:59;;;;;;;3.92;2.53;;;;;;;;;;5050710;28;20484;-73
2022/01/16 14:24:26;;;;;;;2.83;2.25;;;;;;;;;;5052465;28;20017;-73
2022/01/16 14:26:56;;;;;;;3.08;2.05;;;;;;;;;;5052305;28;20111;-73
2022/01/16 14:29:23;;;;;;;5.05;2.60;;;;;;;;;;5052662;28;20025;-73
2022/01/16 14:31:50;;;;;;;3.85;2.90;;;;;;;;;;5050344;28;20017;-73
2022/01/16 14:34:17;;;;;;;2.88;2.40;;;;;;;;;;5052751;28;20075;-73
2022/01/16 14:36:43;;;;;;;3.85;2.80;;;;;;;;;;5050979;28;20029;-73
2022/01/16 14:39:10;;;;;;;4.05;2.40;;;;;;;;;;5052083;28;20040;-73
2022/01/16 14:41:38;;;;;;;3.38;2.40;;;;;;;;;;5043418;28;20057;-73
2022/01/16 14:44:05;;;;;;;3.13;2.80;;;;;;;;;;5031981;28;20028;-74
2022/01/16 14:46:32;;;;;;;2.95;2.35;;;;;;;;;;5030816;28;20060;-73
2022/01/16 14:48:59;;;;;;;4.03;2.35;;;;;;;;;;5030988;28;20021;-73
2022/01/16 14:51:25;;;;;;;3.65;2.00;;;;;;;;;;5030355;28;20037;-73
2022/01/16 14:53:51;;;;;;;3.58;2.33;;;;;;;;;;5031045;28;20029;-73
2022/01/16 14:56:17;;;;;;;3.13;2.47;;;;;;;;;;5032460;28;20057;-73
2022/01/16 14:58:44;;;;;;;2.50;2.20;;;;;;;;;;5032375;28;20046;-73
2022/01/16 15:01:10;;;;;;;2.80;2.30;;;;;;;;;;5032481;28;20159;-73
2022/01/16 15:03:37;;;;;;;2.70;2.20;;;;;;;;;;5030436;28;20025;-73
2022/01/16 15:06:07;;;;;;;3.03;2.50;;;;;;;;;;5042863;28;20035;-74
2022/01/16 15:08:44;;;;;;;3.28;2.70;;;;;;;;;;5052349;28;20028;-73
2022/01/16 15:11:11;;;;;;;4.22;2.40;;;;;;;;;;5052264;28;20025;-73
2022/01/16 15:13:38;;;;;;;3.33;2.47;;;;;;;;;;5051810;28;20021;-73
2022/01/16 15:16:04;;;;;;;3.03;2.55;;;;;;;;;;5052248;28;20492;-73
2022/01/16 15:18:31;;;;;;;2.67;2.20;;;;;;;;;;5043651;28;20077;-73
2022/01/16 15:21:00;;;;;;;2.95;2.25;;;;;;;;;;5032669;28;20025;-73
2022/01/16 15:23:26;;;;;;;3.05;2.10;;;;;;;;;;5031900;28;20025;-73
2022/01/16 15:25:54;;;;;;;2.38;2.10;;;;;;;;;;5032568;28;20057;-73